Time;durP1;ratioP1;P1;durP2;ratioP2;P2;SDS_P1;SDS_P2;PMS_P1;PMS_P2;Temp;Humidity;BMP_temperature;BMP_pressure;BME280_temperature;BME280_humidity;BME280_pressure;Samples;Min_cycle;Max_cycle;Signal;HPM_P1;HPM_P2
2022/05/18 01:54:19;;;;;;;8.07;5.32;;;12.90;97.70;;;;;;4905435;29;20214;-88
2022/05/18 02:09:29;;;;;;;7.07;5.65;;;12.60;97.80;;;;;;4993941;28;20676;-88
2022/05/18 02:12:14;;;;;;;;;;;;;;;;;;;;;
2022/05/18 02:18:14;;;;;;;8.43;5.80;;;12.70;97.70;;;;;;4998213;28;20222;-87
2022/05/18 02:35:11;;;;;;;6.45;5.43;;;12.70;97.90;;;;;;4846601;29;20246;-87
2022/05/18 02:38:24;;;;;;;6.85;5.80;;;12.80;97.40;;;;;;4854661;29;20205;-88
2022/05/18 02:44:33;;;;;;;5.85;5.28;;;12.90;97.70;;;;;;4916074;29;20203;-88
2022/05/18 02:47:01;;;;;;;6.10;5.20;;;12.90;97.10;;;;;;4897425;29;20202;-87
2022/05/18 02:49:51;;;;;;;6.18;5.35;;;12.80;97.20;;;;;;4915257;29;20245;-88
2022/05/18 02:52:42;;;;;;;6.28;5.25;;;12.80;97.50;;;;;;4917780;29;20219;-88
2022/05/18 02:58:19;;;;;;;6.72;5.25;;;12.90;97.60;;;;;;4916307;29;20255;-90
2022/05/18 03:01:08;;;;;;;6.00;5.40;;;12.90;97.10;;;;;;4955847;28;20565;-87
2022/05/18 03:04:07;;;;;;;6.55;5.50;;;12.70;97.10;;;;;;5001643;28;20196;-87
2022/05/18 03:06:34;;;;;;;8.75;5.53;;;12.70;97.60;;;;;;5010784;28;20602;-87
2022/05/18 03:09:03;;;;;;;6.07;5.47;;;12.70;97.30;;;;;;5008446;28;20283;-87
2022/05/18 03:25:02;;;;;;;7.80;5.82;;;12.60;97.70;;;;;;5096615;27;20593;-88
2022/05/18 03:27:54;;;;;;;6.90;5.55;;;12.70;97.10;;;;;;5101515;28;20197;-87
2022/05/18 03:30:46;;;;;;;7.68;5.88;;;12.40;97.30;;;;;;5089591;28;20189;-87
2022/05/18 03:33:23;;;;;;;8.70;5.68;;;12.40;97.70;;;;;;5099215;28;20200;-88
2022/05/18 03:35:50;;;;;;;6.22;5.38;;;12.40;98.00;;;;;;5115426;28;20199;-88
2022/05/18 03:38:40;;;;;;;7.10;5.40;;;12.50;97.60;;;;;;5103526;28;20648;-87
2022/05/18 03:47:52;;;;;;;8.13;5.63;;;12.50;97.40;;;;;;5097484;28;20250;-87
2022/05/18 03:50:19;;;;;;;6.35;5.75;;;12.40;97.40;;;;;;5103211;28;20202;-87
2022/05/18 03:52:55;;;;;;;7.70;5.78;;;12.40;98.10;;;;;;5099991;28;20201;-87
2022/05/18 03:56:07;;;;;;;5.60;5.07;;;12.40;97.90;;;;;;5105251;28;20277;-87
2022/05/18 03:58:34;;;;;;;7.13;4.95;;;12.50;98.20;;;;;;5097697;28;20656;-87
2022/05/18 04:01:08;;;;;;;5.85;5.35;;;12.60;97.40;;;;;;5088369;28;20281;-87
2022/05/18 04:04:21;;;;;;;5.95;5.45;;;12.50;97.10;;;;;;5107605;28;20255;-89
2022/05/18 04:06:50;;;;;;;7.40;5.50;;;12.40;97.90;;;;;;5090934;28;20197;-89
2022/05/18 04:23:50;;;;;;;7.40;5.63;;;12.40;97.20;;;;;;5095416;28;20325;-87
2022/05/18 04:40:40;;;;;;;;;;;;;;;;;;;;;
2022/05/18 04:47:32;;;;;;;;;;;;;;;;;;;;;
2022/05/18 07:56:14;;;;;;;6.50;4.63;;;19.90;59.90;;;;;;4837969;29;20229;-90
2022/05/18 07:59:16;;;;;;;8.13;4.60;;;20.10;56.00;;;;;;4845439;29;20205;-89
2022/05/18 08:01:44;;;;;;;6.22;4.25;;;20.20;56.10;;;;;;4901474;29;20214;-92
2022/05/18 08:04:20;;;;;;;5.55;4.10;;;20.40;54.10;;;;;;4933026;29;20270;-89
2022/05/18 08:07:13;;;;;;;5.78;3.97;;;20.60;48.40;;;;;;4953271;29;20211;-89
2022/05/18 08:16:34;;;;;;;5.95;4.40;;;20.80;54.30;;;;;;5000806;28;20228;-90
2022/05/18 08:19:12;;;;;;;5.25;4.10;;;20.90;50.50;;;;;;5006050;28;20232;-90
2022/05/18 08:22:14;;;;;;;5.80;4.10;;;20.90;49.40;;;;;;5008016;28;20239;-89
2022/05/18 08:24:50;;;;;;;4.60;4.05;;;21.10;51.00;;;;;;5018938;28;20709;-89
2022/05/18 08:27:25;;;;;;;7.40;4.03;;;21.30;47.30;;;;;;5039585;28;20570;-89
2022/05/18 08:30:01;;;;;;;5.22;4.40;;;21.60;44.10;;;;;;5056392;28;20202;-88
2022/05/18 08:32:37;;;;;;;8.05;4.28;;;22.00;42.00;;;;;;5059582;28;20727;-90
2022/05/18 08:35:08;;;;;;;5.38;3.88;;;22.50;37.60;;;;;;5048442;28;20202;-90
2022/05/18 08:37:41;;;;;;;8.23;3.90;;;23.00;38.00;;;;;;5063767;28;20198;-88
2022/05/18 08:40:39;;;;;;;7.60;3.55;;;23.30;34.80;;;;;;5061278;28;20215;-86
2022/05/18 08:43:25;;;;;;;4.30;3.90;;;24.50;30.20;;;;;;5073500;28;20247;-84
2022/05/18 08:46:04;;;;;;;6.80;4.05;;;25.60;27.10;;;;;;5078800;28;20192;-85
2022/05/18 08:48:55;;;;;;;4.30;3.60;;;26.30;24.70;;;;;;5073747;28;20213;-84
2022/05/18 08:51:37;;;;;;;6.35;3.22;;;26.90;22.30;;;;;;5068251;28;20656;-85
2022/05/18 08:54:25;;;;;;;4.88;3.47;;;27.90;21.60;;;;;;5084260;28;20608;-85
2022/05/18 08:56:58;;;;;;;6.22;3.22;;;27.90;18.80;;;;;;5068742;28;20218;-85
2022/05/18 08:59:44;;;;;;;7.25;3.13;;;29.20;18.40;;;;;;5070391;28;20193;-86
2022/05/18 09:02:18;;;;;;;5.75;4.22;;;30.30;15.80;;;;;;5055750;28;20201;-85
2022/05/18 09:04:52;;;;;;;6.13;3.40;;;29.10;16.20;;;;;;5058509;28;20222;-85
2022/05/18 09:07:40;;;;;;;5.07;3.20;;;28.40;15.90;;;;;;5065667;28;20195;-85
2022/05/18 09:10:16;;;;;;;6.30;2.78;;;29.80;15.10;;;;;;5063094;28;20365;-85
2022/05/18 09:12:45;;;;;;;3.30;3.00;;;30.80;12.10;;;;;;5068345;28;20200;-85
2022/05/18 09:15:24;;;;;;;5.63;2.75;;;31.30;11.90;;;;;;5075059;28;20192;-85
2022/05/18 09:18:08;;;;;;;3.40;3.05;;;31.80;10.80;;;;;;5067746;28;20593;-85
2022/05/18 09:20:42;;;;;;;6.90;3.95;;;31.60;12.00;;;;;;5071929;28;20583;-86
2022/05/18 09:23:31;;;;;;;5.80;3.38;;;32.00;11.10;;;;;;5075268;28;20189;-86
2022/05/18 09:26:31;;;;;;;4.65;3.42;;;31.50;12.00;;;;;;5060033;28;20205;-86
2022/05/18 09:29:24;;;;;;;4.38;4.03;;;33.00;11.00;;;;;;5066411;28;20222;-86
2022/05/18 09:32:10;;;;;;;5.72;4.15;;;33.90;8.90;;;;;;5065375;28;20259;-86
2022/05/18 09:35:01;;;;;;;7.00;4.10;;;33.80;10.10;;;;;;5063803;28;20652;-87
2022/05/18 09:37:57;;;;;;;5.28;4.18;;;34.10;9.50;;;;;;5068082;28;20216;-87
2022/05/18 09:40:30;;;;;;;5.75;4.50;;;34.40;8.30;;;;;;5083715;28;20250;-87
2022/05/18 09:43:06;;;;;;;5.30;4.30;;;34.60;9.30;;;;;;5070006;28;20733;-85
2022/05/18 09:45:36;;;;;;;5.25;4.13;;;34.30;9.10;;;;;;5073203;28;20197;-86
2022/05/18 09:48:29;;;;;;;5.63;4.40;;;34.00;9.00;;;;;;5066090;28;20201;-86
2022/05/18 09:51:09;;;;;;;6.10;4.38;;;33.70;8.80;;;;;;5064563;28;20207;-86
2022/05/18 09:54:13;;;;;;;6.32;4.00;;;33.60;8.80;;;;;;5068959;28;20537;-85
2022/05/18 09:56:52;;;;;;;5.72;4.70;;;33.60;8.80;;;;;;5069080;28;20200;-86
2022/05/18 09:59:39;;;;;;;5.80;4.75;;;33.50;10.00;;;;;;5066811;28;20194;-85
2022/05/18 10:07:55;;;;;;;4.63;4.10;;;34.30;7.00;;;;;;5063462;28;20207;-85
2022/05/18 10:10:40;;;;;;;5.97;4.45;;;34.00;6.80;;;;;;5058702;28;20202;-86
2022/05/18 10:13:32;;;;;;;4.80;4.25;;;32.70;7.60;;;;;;5065800;28;20194;-86
2022/05/18 10:16:17;;;;;;;5.95;3.92;;;33.40;7.70;;;;;;5064697;28;20648;-86
2022/05/18 10:18:52;;;;;;;4.93;4.03;;;33.60;8.20;;;;;;5063782;28;20198;-86
2022/05/18 10:21:27;;;;;;;4.40;4.03;;;33.90;7.00;;;;;;5066918;28;20555;-86
2022/05/18 10:24:06;;;;;;;4.50;4.00;;;34.20;7.50;;;;;;5065145;28;20220;-86
2022/05/18 10:27:06;;;;;;;4.00;3.60;;;32.60;8.30;;;;;;5061144;28;20201;-86
2022/05/18 10:29:40;;;;;;;5.82;3.92;;;33.30;10.30;;;;;;5069386;28;20248;-85
2022/05/18 10:32:10;;;;;;;7.03;4.10;;;33.10;7.20;;;;;;5087877;28;20247;-85
2022/05/18 10:38:26;;;;;;;3.13;2.92;;;33.10;8.50;;;;;;5084487;28;20187;-83
2022/05/18 10:41:12;;;;;;;4.25;3.28;;;32.60;8.00;;;;;;5071025;28;20306;-83
2022/05/18 10:44:03;;;;;;;12.05;11.15;;;32.90;8.40;;;;;;5073524;28;20647;-83
2022/05/18 10:46:47;;;;;;;5.43;4.00;;;33.10;7.20;;;;;;5070645;28;20690;-83
2022/05/18 10:49:29;;;;;;;5.75;3.55;;;32.90;8.40;;;;;;5063337;28;20199;-83
2022/05/18 10:52:12;;;;;;;6.65;3.88;;;32.40;9.40;;;;;;5072359;28;20195;-83
2022/05/18 10:54:39;;;;;;;4.88;3.30;;;32.30;8.60;;;;;;5066013;28;20729;-82
2022/05/18 10:57:12;;;;;;;5.63;3.70;;;30.40;11.30;;;;;;5072325;28;20194;-82
2022/05/18 10:59:50;;;;;;;6.13;3.75;;;31.10;12.70;;;;;;5067051;28;20204;-82
2022/05/18 11:02:28;;;;;;;6.28;3.70;;;31.40;10.80;;;;;;5065736;28;20193;-82
2022/05/18 11:05:20;;;;;;;6.05;3.70;;;30.90;14.20;;;;;;5064227;28;20208;-82
2022/05/18 11:07:50;;;;;;;3.85;3.13;;;30.20;12.90;;;;;;5063279;28;20205;-82
2022/05/18 11:10:19;;;;;;;6.88;3.40;;;29.40;15.30;;;;;;5067920;28;20192;-84
2022/05/18 11:12:56;;;;;;;4.72;3.85;;;28.60;15.90;;;;;;5068849;28;20592;-84
2022/05/18 11:15:44;;;;;;;7.13;3.95;;;28.30;15.80;;;;;;5067471;28;20226;-84
2022/05/18 11:18:23;;;;;;;6.15;4.07;;;27.80;17.00;;;;;;5069951;28;20204;-84
2022/05/18 11:21:01;;;;;;;7.63;4.05;;;27.70;19.60;;;;;;5074951;28;20208;-84
2022/05/18 11:23:46;;;;;;;7.07;4.07;;;27.50;19.20;;;;;;5065081;28;20197;-84
2022/05/18 11:26:29;;;;;;;9.82;4.18;;;27.20;19.70;;;;;;5069846;28;20201;-88
2022/05/18 11:29:38;;;;;;;6.22;3.90;;;26.80;20.50;;;;;;5063102;28;20211;-89
2022/05/18 11:32:26;;;;;;;6.75;4.20;;;26.50;21.90;;;;;;5069451;28;20203;-88
2022/05/18 11:35:18;;;;;;;6.57;3.95;;;26.80;21.00;;;;;;5075072;28;20204;-88
2022/05/18 11:38:19;;;;;;;7.38;4.50;;;26.90;22.20;;;;;;5069408;28;20563;-88
2022/05/18 11:41:12;;;;;;;7.10;4.30;;;26.70;22.00;;;;;;5070524;28;20225;-87
2022/05/18 11:43:51;;;;;;;6.45;4.05;;;26.40;23.70;;;;;;5070394;28;20205;-88
2022/05/18 11:46:54;;;;;;;5.10;3.97;;;26.50;22.50;;;;;;5072870;28;20205;-88
2022/05/18 11:49:34;;;;;;;8.18;5.70;;;26.60;24.20;;;;;;5075421;28;20205;-88
2022/05/18 11:52:29;;;;;;;6.40;4.20;;;26.50;23.20;;;;;;5075180;28;20197;-88
2022/05/18 11:55:11;;;;;;;6.05;4.15;;;26.40;24.20;;;;;;5073972;28;20197;-88
2022/05/18 11:58:02;;;;;;;6.63;4.53;;;26.50;22.90;;;;;;5068406;28;20287;-88
2022/05/18 12:00:56;;;;;;;6.45;4.50;;;26.10;25.10;;;;;;5080198;28;20666;-88
2022/05/18 12:03:47;;;;;;;7.03;4.70;;;25.90;25.00;;;;;;5073457;28;20190;-88
2022/05/18 12:06:52;;;;;;;7.38;4.60;;;25.70;28.10;;;;;;5082658;28;20194;-87
2022/05/18 12:09:48;;;;;;;4.95;4.43;;;25.90;23.60;;;;;;5078421;28;20574;-88
2022/05/18 12:12:21;;;;;;;5.55;4.00;;;26.00;26.20;;;;;;5069926;28;20202;-89
2022/05/18 12:14:57;;;;;;;6.60;4.22;;;26.00;25.10;;;;;;5070673;28;20194;-87
2022/05/18 12:17:34;;;;;;;8.18;4.15;;;25.90;27.10;;;;;;5082453;28;20644;-88
2022/05/18 12:20:07;;;;;;;5.55;4.10;;;25.90;25.50;;;;;;5079081;28;20188;-88
2022/05/18 12:23:19;;;;;;;5.10;4.20;;;25.90;25.10;;;;;;5083833;28;20284;-88
2022/05/18 12:26:03;;;;;;;8.18;4.55;;;25.60;26.70;;;;;;5073617;28;20256;-90
2022/05/18 12:28:31;;;;;;;9.82;4.65;;;25.20;28.30;;;;;;5074155;28;20347;-88
2022/05/18 12:31:07;;;;;;;4.50;3.72;;;25.30;27.40;;;;;;5086630;28;20196;-90
2022/05/18 12:33:43;;;;;;;7.40;4.00;;;25.50;24.90;;;;;;5078555;28;20209;-90
2022/05/18 12:36:17;;;;;;;6.47;4.10;;;25.70;25.50;;;;;;5084686;28;20204;-91
2022/05/18 12:39:09;;;;;;;5.88;3.60;;;25.50;26.80;;;;;;5074451;28;20225;-90
2022/05/18 12:41:43;;;;;;;6.50;3.72;;;25.80;24.90;;;;;;5075179;28;20217;-91
2022/05/18 12:44:23;;;;;;;5.63;3.72;;;25.80;24.70;;;;;;5080057;28;20212;-88
2022/05/18 12:46:55;;;;;;;5.35;3.50;;;25.40;24.50;;;;;;5076613;28;20200;-90
2022/05/18 12:49:32;;;;;;;6.30;3.78;;;25.10;25.50;;;;;;5075091;28;20237;-90
2022/05/18 12:52:05;;;;;;;5.15;3.60;;;25.40;24.40;;;;;;5074099;28;20883;-89
2022/05/18 12:54:42;;;;;;;3.83;3.15;;;25.50;24.70;;;;;;5078172;28;20197;-90
2022/05/18 12:57:20;;;;;;;4.50;3.13;;;25.70;24.10;;;;;;5074714;28;20200;-90
2022/05/18 13:00:30;;;;;;;6.18;3.70;;;25.60;24.20;;;;;;5072069;28;20208;-90
2022/05/18 13:03:20;;;;;;;4.57;3.40;;;25.30;25.90;;;;;;5038228;28;20341;-90
2022/05/18 13:05:58;;;;;;;4.43;3.38;;;25.50;24.80;;;;;;5037422;28;20229;-90
2022/05/18 13:08:59;;;;;;;5.72;3.80;;;25.40;24.70;;;;;;5028807;28;20217;-90
2022/05/18 13:11:53;;;;;;;4.90;3.30;;;25.30;24.60;;;;;;5021135;28;20660;-90
2022/05/18 13:14:44;;;;;;;4.88;3.17;;;25.10;24.50;;;;;;5032541;28;20249;-90
2022/05/18 13:17:20;;;;;;;4.75;2.80;;;25.00;26.80;;;;;;5020592;28;20203;-90
2022/05/18 13:20:00;;;;;;;4.90;3.17;;;25.20;23.90;;;;;;5041993;28;20205;-90
2022/05/18 13:22:57;;;;;;;8.30;3.33;;;25.20;23.60;;;;;;5039260;28;20257;-90
2022/05/18 13:25:27;;;;;;;3.58;2.85;;;25.20;24.50;;;;;;5039739;28;20254;-90
2022/05/18 13:27:56;;;;;;;6.78;2.97;;;25.20;23.20;;;;;;5037348;28;20207;-90
2022/05/18 13:30:42;;;;;;;3.15;2.78;;;25.10;23.50;;;;;;5039099;28;20270;-90
2022/05/18 13:33:29;;;;;;;3.85;2.85;;;25.20;23.20;;;;;;5034467;28;20274;-90
2022/05/18 13:36:46;;;;;;;5.88;3.10;;;25.30;23.20;;;;;;5030837;28;20202;-90
2022/05/18 13:39:30;;;;;;;5.18;2.70;;;25.10;22.50;;;;;;5065959;28;20194;-91
2022/05/18 13:41:57;;;;;;;3.35;2.20;;;25.10;23.30;;;;;;5073111;28;20574;-89
2022/05/18 13:44:25;;;;;;;4.00;2.67;;;25.20;22.90;;;;;;5080096;28;20208;-90
2022/05/18 13:47:04;;;;;;;2.67;2.25;;;25.30;20.80;;;;;;5072779;28;20201;-90
2022/05/18 13:49:41;;;;;;;4.95;2.38;;;25.20;21.20;;;;;;5074057;28;20211;-90
2022/05/18 13:52:21;;;;;;;3.20;2.10;;;25.20;20.50;;;;;;5088725;28;20207;-90
2022/05/18 13:55:02;;;;;;;4.75;2.38;;;25.10;20.90;;;;;;5075363;28;20232;-90
2022/05/18 13:58:05;;;;;;;4.13;2.50;;;25.00;20.50;;;;;;5093532;28;20234;-91
2022/05/18 14:00:37;;;;;;;4.35;2.22;;;24.90;21.10;;;;;;5079117;28;20664;-89
2022/05/18 14:03:23;;;;;;;3.65;2.50;;;25.00;21.20;;;;;;5083685;28;20199;-90
2022/05/18 14:06:17;;;;;;;4.10;2.42;;;25.10;19.90;;;;;;5082195;28;20216;-90
2022/05/18 14:37:57;;;;;;;3.05;2.40;;;24.60;22.80;;;;;;4871479;29;20212;-91
2022/05/18 14:40:29;;;;;;;2.95;2.45;;;24.70;22.20;;;;;;4873185;29;20220;-91
2022/05/18 15:52:01;;;;;;;4.97;2.58;;;23.50;24.10;;;;;;4717319;30;20315;-92
2022/05/18 18:59:33;;;;;;;2.78;2.17;;;19.40;29.20;;;;;;4947525;29;20233;-89
2022/05/18 19:02:14;;;;;;;6.78;2.20;;;19.30;29.90;;;;;;4953757;29;20201;-90
2022/05/18 19:08:35;;;;;;;5.97;2.40;;;19.40;28.70;;;;;;5002244;28;20214;-89
2022/05/18 19:11:42;;;;;;;3.58;2.40;;;19.20;28.40;;;;;;4982477;28;20265;-89
2022/05/18 19:14:21;;;;;;;3.17;2.10;;;19.20;28.40;;;;;;4990066;28;20244;-89
2022/05/18 19:23:43;;;;;;;4.78;2.22;;;19.00;29.80;;;;;;5000818;28;20200;-90
2022/05/18 19:32:42;;;;;;;3.47;1.95;;;19.00;29.40;;;;;;4892532;29;20215;-89
2022/05/18 19:38:31;;;;;;;3.10;2.10;;;18.80;30.90;;;;;;4858473;29;20732;-89
2022/05/18 19:44:24;;;;;;;2.28;2.00;;;18.70;30.90;;;;;;4801969;29;20218;-90
2022/05/18 19:50:28;;;;;;;6.70;2.35;;;18.60;30.90;;;;;;4803293;29;20281;-89
2022/05/18 20:13:18;;;;;;;5.10;2.20;;;18.20;32.00;;;;;;4954597;29;20308;-91
2022/05/18 20:33:15;;;;;;;3.40;2.10;;;17.70;34.70;;;;;;4947472;29;20205;-89
2022/05/18 20:39:02;;;;;;;4.25;2.30;;;17.60;35.80;;;;;;4966846;28;20208;-89
2022/05/18 20:41:45;;;;;;;4.13;2.40;;;17.50;36.70;;;;;;5078170;28;20229;-90
2022/05/18 20:51:17;;;;;;;8.07;2.78;;;17.30;39.00;;;;;;5080025;28;20201;-89
2022/05/18 21:00:28;;;;;;;6.63;2.72;;;17.20;41.50;;;;;;4920200;28;20218;-89
2022/05/18 21:05:46;;;;;;;4.35;2.78;;;17.10;43.10;;;;;;4983875;28;20224;-89
2022/05/18 21:09:08;;;;;;;3.92;2.47;;;17.00;43.40;;;;;;4984290;28;20268;-89
2022/05/18 21:19:34;;;;;;;5.68;2.40;;;16.80;43.70;;;;;;4931147;29;20230;-89
2022/05/18 21:26:14;;;;;;;;;;;;;;;;;;;;;
2022/05/18 21:52:59;;;;;;;5.65;2.88;;;16.30;52.50;;;;;;5079650;28;20228;-89
2022/05/18 22:06:04;;;;;;;4.55;2.65;;;16.00;52.20;;;;;;5089012;28;20200;-88
2022/05/18 22:12:30;;;;;;;5.25;2.53;;;15.80;54.70;;;;;;5091055;28;20185;-88
2022/05/18 22:35:33;;;;;;;3.97;2.60;;;15.40;55.30;;;;;;5029282;28;20207;-89
2022/05/18 22:38:26;;;;;;;4.15;2.50;;;15.40;55.90;;;;;;5023657;28;20200;-89
2022/05/18 22:48:16;;;;;;;6.70;2.75;;;15.30;55.50;;;;;;5029654;28;20226;-88
2022/05/18 23:20:54;;;;;;;4.13;2.53;;;15.00;57.60;;;;;;5027124;28;20207;-88
